Airfield :
LOGIN :

Register | Disclaimer

   EN    FR    IT 

 










Legend :    VFR   Marginal VFR   IFR   Intensive IFR   Very Intensive IFR
Visi :
Ceiling :
>= 8 km
>= 3000ft
5 to 8 km
1000 to 3000 ft
1500m to 5 km
500 to 1000 ft
800 to 1500m
200 to 500 ft
< 800m
< 200 ft
Symbols :   Thunderstorms  Fog  Heavy snow  Heavy precipitations  Wind > 20 kt
SIGMETs :     Misc.  Thunderstorms  Icing  Turbulence  Mountain Waves  Volcanic Ashes







- Airport Elevation : 463 ft
- IATA code : SZY
- AIRPORT CLOSED.


EPSY - Szczytno

CURRENT METAR :
  • 181500Z 26006KT 230V290 9999 SCT020 BKN039 M02/M03 Q1012 R01/290195

EXPIRED METARs :
  • 181430Z 26007KT 230V300 9999 SCT020 BKN035 M01/M03 Q1011 R01/290195
  • 181400Z 27007KT 240V310 9999 SCT021 BKN043 M01/M03 Q1011 R01/290195
  • 181330Z 26005KT 230V310 9999 SCT017 BKN028 M01/M02 Q1010 R01/290195
  • 181300Z 29008KT 260V330 9999 SCT014 BKN020 BKN047 M01/M02 Q1010 R01/290195
  • 181230Z 28008KT 250V320 9999 FEW012 SCT017 BKN045 M01/M02 Q1009 R01/290195

TAF TAF EPSY
Valid from the 18 at 15:00 until the 19 at 00:00 UTC


181430Z 1815/1824 26008KT 9999 SCT017 BKN040
No reported NOTAMs for that airfield.



MET'MAP, your aeronautical weather chart ! - Copyright ORBIFLY December 2007 - Disclaimer

ORBIFLY MET'MAP TEAM :

Programming & Development : Alexandra Zaïnal
Concept & Development : Baudouin d'Aumeries
Co-Development & Prog : Marc-Olivier Méhu
Technical & hardware support : Manuel Goepfert

Contact : metmap@orbifly.com




SOURCES & CREDITS :

   NOAA